createdAt,value
2023-05-16T00:02:28.276Z,2.25
2023-05-16T00:04:58.003Z,1.90
2023-05-16T00:07:26.320Z,2.55
2023-05-16T00:09:54.343Z,1.45
2023-05-16T00:12:22.710Z,2.17
2023-05-16T00:14:51.552Z,2.20
2023-05-16T00:17:20.603Z,1.98
2023-05-16T00:19:48.932Z,1.60
2023-05-16T00:22:18.763Z,1.60
2023-05-16T00:24:46.739Z,1.85
2023-05-16T00:27:15.221Z,1.73
2023-05-16T00:29:43.719Z,1.70
2023-05-16T00:32:11.998Z,1.55
2023-05-16T00:34:41.147Z,1.83
2023-05-16T00:37:09.199Z,1.60
2023-05-16T00:39:40.191Z,1.50
2023-05-16T00:42:08.290Z,2.05
2023-05-16T00:44:36.262Z,1.40
2023-05-16T00:47:04.357Z,1.73
2023-05-16T00:49:32.363Z,1.38
2023-05-16T00:52:00.446Z,1.52
2023-05-16T00:54:29.331Z,1.90
2023-05-16T00:56:58.780Z,1.65
2023-05-16T00:59:26.956Z,1.67
2023-05-16T01:01:56.157Z,1.90
2023-05-16T01:04:24.555Z,1.75
2023-05-16T01:06:52.722Z,2.22
2023-05-16T01:09:21.960Z,1.60
2023-05-16T01:11:53.256Z,1.45
2023-05-16T01:14:25.205Z,1.70
2023-05-16T01:16:56.020Z,1.52
2023-05-16T01:19:32.752Z,1.55
2023-05-16T01:22:05.566Z,1.40
2023-05-16T01:24:35.042Z,2.53
2023-05-16T01:27:04.489Z,3.05
2023-05-16T01:29:34.789Z,1.60
2023-05-16T01:32:02.990Z,1.50
2023-05-16T01:34:31.010Z,1.73
2023-05-16T01:37:02.106Z,1.35
2023-05-16T01:39:34.889Z,1.45
2023-05-16T01:42:05.872Z,1.80
2023-05-16T01:44:35.262Z,2.60
2023-05-16T01:47:04.127Z,1.52
2023-05-16T01:49:36.385Z,1.70
2023-05-16T01:52:08.490Z,1.63
2023-05-16T01:54:36.838Z,1.75
2023-05-16T01:57:08.302Z,1.50
2023-05-16T01:59:36.470Z,1.88
2023-05-16T02:02:04.685Z,1.92
2023-05-16T02:04:32.768Z,1.60
2023-05-16T02:07:01.951Z,1.42
2023-05-16T02:09:30.027Z,1.70
2023-05-16T02:11:57.999Z,1.60
2023-05-16T02:14:27.489Z,1.42
2023-05-16T02:16:55.545Z,1.42
2023-05-16T02:19:23.585Z,2.85
2023-05-16T02:21:51.593Z,2.30
2023-05-16T02:24:19.629Z,1.35
2023-05-16T02:26:47.635Z,1.73
2023-05-16T02:29:16.536Z,1.73
2023-05-16T02:31:45.985Z,2.25
2023-05-16T02:34:14.035Z,1.58
2023-05-16T02:36:43.576Z,1.42
2023-05-16T02:39:11.765Z,1.75
2023-05-16T02:41:39.735Z,1.40
2023-05-16T02:44:07.776Z,1.45
2023-05-16T02:46:36.825Z,1.88
2023-05-16T02:49:06.718Z,1.50
2023-05-16T02:51:34.717Z,1.50
2023-05-16T02:54:02.791Z,2.15
2023-05-16T02:56:30.871Z,1.65
2023-05-16T02:58:58.871Z,1.50
2023-05-16T03:01:26.955Z,1.50
2023-05-16T03:03:55.397Z,2.58
2023-05-16T03:06:25.583Z,1.77
2023-05-16T03:08:53.607Z,1.50
2023-05-16T03:11:21.843Z,1.48
2023-05-16T03:13:49.960Z,1.90
2023-05-16T03:16:18.036Z,1.30
2023-05-16T03:18:46.100Z,2.35
2023-05-16T03:21:14.135Z,1.20
2023-05-16T03:23:43.580Z,1.48
2023-05-16T03:26:11.591Z,2.63
2023-05-16T03:28:39.635Z,1.90
2023-05-16T03:31:07.721Z,1.38
2023-05-16T03:33:35.796Z,1.90
2023-05-16T03:36:03.854Z,2.47
2023-05-16T03:38:32.289Z,1.92
2023-05-16T03:41:01.968Z,1.30
2023-05-16T03:43:29.981Z,1.40
2023-05-16T03:45:58.054Z,1.20
2023-05-16T03:48:26.085Z,2.05
2023-05-16T03:50:54.093Z,2.70
2023-05-16T03:53:22.229Z,2.40
2023-05-16T03:55:50.272Z,1.67
2023-05-16T03:58:19.678Z,1.90
2023-05-16T04:00:47.624Z,1.48
2023-05-16T04:03:15.684Z,1.30
2023-05-16T04:05:43.758Z,1.48
2023-05-16T04:08:11.984Z,1.38
2023-05-16T04:10:40.023Z,1.20
2023-05-16T04:13:08.023Z,1.55
2023-05-16T04:15:37.469Z,1.40
2023-05-16T04:18:05.862Z,1.50
2023-05-16T04:20:33.925Z,1.88
2023-05-16T04:23:02.027Z,1.50
2023-05-16T04:25:31.237Z,1.30
2023-05-16T04:27:59.273Z,1.48
2023-05-16T04:30:27.395Z,1.50
2023-05-16T04:32:57.417Z,3.00
2023-05-16T04:35:25.854Z,1.60
2023-05-16T04:37:54.134Z,1.10
2023-05-16T04:40:22.461Z,1.50
2023-05-16T04:42:50.952Z,1.40
2023-05-16T04:45:19.080Z,1.50
2023-05-16T04:47:47.178Z,1.70
2023-05-16T04:50:18.170Z,1.52
2023-05-16T04:52:46.782Z,1.55
2023-05-16T04:55:14.763Z,1.30
2023-05-16T04:57:42.783Z,1.13
2023-05-16T05:00:12.143Z,1.83
2023-05-16T05:02:40.291Z,1.17
2023-05-16T05:05:09.635Z,2.50
2023-05-16T05:07:39.073Z,1.38
2023-05-16T05:10:07.801Z,1.55
2023-05-16T05:12:36.378Z,1.77
2023-05-16T05:15:04.772Z,2.40
2023-05-16T05:17:32.943Z,4.13
2023-05-16T05:20:02.816Z,9.65
2023-05-16T05:22:31.392Z,5.93
2023-05-16T05:25:00.827Z,6.15
2023-05-16T05:27:28.865Z,4.32
2023-05-16T05:29:56.865Z,8.65
2023-05-16T05:32:24.917Z,3.15
2023-05-16T05:34:53.078Z,4.32
2023-05-16T05:37:21.178Z,4.10
2023-05-16T05:39:49.225Z,4.95
2023-05-16T05:42:18.573Z,3.28
2023-05-16T05:44:46.601Z,6.03
2023-05-16T05:47:14.616Z,3.70
2023-05-16T05:49:42.627Z,4.13
2023-05-16T05:52:11.013Z,4.93
2023-05-16T05:54:39.059Z,5.15
2023-05-16T05:57:07.250Z,3.67
2023-05-16T05:59:36.634Z,4.18
2023-05-16T06:02:04.730Z,4.72
2023-05-16T06:04:33.002Z,3.70
2023-05-16T06:07:01.016Z,3.78
2023-05-16T06:09:29.008Z,5.05
2023-05-16T06:11:57.028Z,6.95
2023-05-16T06:14:25.061Z,4.53
2023-05-16T06:16:54.477Z,3.58
2023-05-16T06:19:22.638Z,3.33
2023-05-16T06:21:50.770Z,3.90
2023-05-16T06:24:18.815Z,4.38
2023-05-16T06:26:50.016Z,4.60
2023-05-16T06:29:18.257Z,3.95
2023-05-16T06:31:47.415Z,4.15
2023-05-16T06:34:16.820Z,5.38
2023-05-16T06:36:44.888Z,3.15
2023-05-16T06:39:12.945Z,3.00
2023-05-16T06:41:41.002Z,5.13
2023-05-16T06:44:16.608Z,2.90
2023-05-16T06:46:44.728Z,5.07
2023-05-16T06:49:12.795Z,3.15
2023-05-16T06:51:42.376Z,3.10
2023-05-16T06:54:10.859Z,4.50
2023-05-16T06:56:38.947Z,3.28
2023-05-16T06:59:06.976Z,3.58
2023-05-16T07:01:35.098Z,5.88
2023-05-16T07:04:03.280Z,3.20
2023-05-16T07:06:31.545Z,4.03
2023-05-16T07:09:02.104Z,3.45
2023-05-16T07:11:30.190Z,3.50
2023-05-16T07:13:59.459Z,3.60
2023-05-16T07:16:28.662Z,2.55
2023-05-16T07:18:56.953Z,4.30
2023-05-16T07:21:25.233Z,2.53
2023-05-16T07:23:53.256Z,4.05
2023-05-16T07:26:23.658Z,5.18
2023-05-16T07:28:51.778Z,3.30
2023-05-16T07:31:20.189Z,3.92
2023-05-16T07:33:49.245Z,2.95
2023-05-16T07:36:17.849Z,2.30
2023-05-16T07:38:46.126Z,2.65
2023-05-16T07:41:14.179Z,4.05
2023-05-16T07:43:43.609Z,4.15
2023-05-16T07:46:12.809Z,4.72
2023-05-16T07:48:40.953Z,6.40
2023-05-16T07:51:09.004Z,5.20
2023-05-16T07:53:37.150Z,3.00
2023-05-16T07:58:33.602Z,4.28
2023-05-16T08:01:03.071Z,3.00
2023-05-16T08:03:31.581Z,3.28
2023-05-16T08:05:59.851Z,3.72
2023-05-16T08:08:27.937Z,5.75
2023-05-16T08:10:56.018Z,5.20
2023-05-16T08:13:24.057Z,9.90
2023-05-16T08:15:52.292Z,11.02
2023-05-16T08:18:23.030Z,4.90
2023-05-16T08:20:51.372Z,4.63
2023-05-16T08:23:20.157Z,5.25
2023-05-16T08:25:48.489Z,5.03
2023-05-16T08:28:16.500Z,4.60
2023-05-16T08:30:46.414Z,6.35
2023-05-16T08:33:16.139Z,4.28
2023-05-16T08:35:46.377Z,8.98
2023-05-16T08:38:14.520Z,6.43
2023-05-16T08:40:43.853Z,7.20
2023-05-16T08:43:11.979Z,6.18
2023-05-16T08:45:40.138Z,4.45
2023-05-16T08:48:10.449Z,5.50
2023-05-16T08:50:38.742Z,5.05
2023-05-16T08:53:09.182Z,7.85
2023-05-16T08:55:37.286Z,4.95
2023-05-16T08:58:05.349Z,4.38
2023-05-16T09:00:33.393Z,6.50
2023-05-16T09:03:01.596Z,6.22
2023-05-16T09:05:31.012Z,7.80
2023-05-16T09:07:59.125Z,7.43
2023-05-16T09:10:28.544Z,6.72
2023-05-16T09:12:56.615Z,5.03
2023-05-16T09:15:24.670Z,6.72
2023-05-16T09:17:53.039Z,3.33
2023-05-16T09:20:21.343Z,6.45
2023-05-16T09:22:53.605Z,4.75
2023-05-16T09:25:30.160Z,3.75
2023-05-16T09:28:02.443Z,4.28
2023-05-16T09:30:32.143Z,6.15
2023-05-16T09:33:00.421Z,5.53
2023-05-16T09:35:42.985Z,7.20
2023-05-16T09:38:16.760Z,8.18
2023-05-16T09:40:45.058Z,8.27
2023-05-16T09:43:17.135Z,11.60
2023-05-16T09:45:47.677Z,12.85
2023-05-16T09:48:16.102Z,16.90
2023-05-16T09:50:49.827Z,20.50
2023-05-16T09:53:17.939Z,17.85
2023-05-16T09:55:46.006Z,21.33
2023-05-16T09:58:18.125Z,22.52
2023-05-16T10:00:47.091Z,20.08
2023-05-16T10:03:15.183Z,18.88
2023-05-16T10:05:43.303Z,17.10
2023-05-16T10:08:11.384Z,16.60
2023-05-16T10:10:39.452Z,15.65
2023-05-16T10:13:08.949Z,16.25
2023-05-16T10:15:39.261Z,18.40
2023-05-16T10:18:11.834Z,14.55
2023-05-16T10:20:41.167Z,15.05
2023-05-16T10:23:09.199Z,16.55
2023-05-16T10:25:40.109Z,13.68
2023-05-16T10:28:08.338Z,16.92
2023-05-16T10:30:36.458Z,16.80
2023-05-16T10:33:05.948Z,12.95
2023-05-16T10:35:33.991Z,8.32
2023-05-16T10:38:02.081Z,11.07
2023-05-16T10:40:30.109Z,9.48
2023-05-16T10:42:58.372Z,13.27
2023-05-16T10:45:27.046Z,15.07
2023-05-16T10:47:55.961Z,13.70
2023-05-16T10:50:35.414Z,14.23
2023-05-16T10:53:17.287Z,14.07
2023-05-16T10:56:07.106Z,10.35
2023-05-16T10:58:48.295Z,14.00
2023-05-16T11:01:20.640Z,10.75
2023-05-16T11:04:18.627Z,9.75
2023-05-16T11:06:51.485Z,13.88
2023-05-16T11:09:22.351Z,10.55
2023-05-16T11:11:56.471Z,10.43
2023-05-16T11:14:24.837Z,12.80
2023-05-16T11:16:53.441Z,12.80
2023-05-16T11:19:34.927Z,10.65
2023-05-16T11:22:17.628Z,9.00
2023-05-16T11:24:53.255Z,9.80
2023-05-16T11:27:28.532Z,9.80
2023-05-16T11:29:58.714Z,7.53
2023-05-16T11:32:27.881Z,7.93
2023-05-16T11:34:55.926Z,7.43
2023-05-16T11:37:25.364Z,8.02
2023-05-16T11:39:53.857Z,7.15
2023-05-16T11:42:21.942Z,8.07
2023-05-16T11:44:50.008Z,8.55
2023-05-16T11:47:18.104Z,7.68
2023-05-16T11:49:48.175Z,8.75
2023-05-16T11:52:18.252Z,15.15
2023-05-16T11:54:47.870Z,19.27
2023-05-16T11:57:16.569Z,31.27
2023-05-16T11:59:44.638Z,17.27
2023-05-16T12:02:12.717Z,12.63
2023-05-16T12:04:40.814Z,11.40
2023-05-16T12:07:09.410Z,12.32
2023-05-16T12:09:37.467Z,7.95
2023-05-16T12:12:09.005Z,8.95
2023-05-16T12:14:37.105Z,8.38
2023-05-16T12:17:05.564Z,7.57
2023-05-16T12:19:33.747Z,6.80
2023-05-16T12:22:01.832Z,5.72
2023-05-16T12:24:33.088Z,7.93
2023-05-16T12:27:01.205Z,5.43
2023-05-16T12:29:30.602Z,6.20
2023-05-16T12:31:58.790Z,7.38
2023-05-16T12:34:29.921Z,7.00
2023-05-16T12:36:58.010Z,5.45
2023-05-16T12:39:26.337Z,4.85
2023-05-16T12:41:54.425Z,6.30
2023-05-16T12:44:23.651Z,5.47
2023-05-16T12:46:55.129Z,5.53
2023-05-16T12:49:23.384Z,6.32
2023-05-16T12:51:52.458Z,6.22
2023-05-16T12:54:22.853Z,7.75
2023-05-16T12:56:51.233Z,4.97
2023-05-16T12:59:20.306Z,4.85
2023-05-16T13:01:48.536Z,5.63
2023-05-16T13:04:20.287Z,5.65
2023-05-16T13:06:59.267Z,4.43
2023-05-16T13:09:31.995Z,6.32
2023-05-16T13:12:01.220Z,4.25
2023-05-16T13:14:29.290Z,4.15
2023-05-16T13:16:57.378Z,3.97
2023-05-16T13:19:26.944Z,4.50
2023-05-16T13:21:55.189Z,8.88
2023-05-16T13:24:23.271Z,4.43
2023-05-16T13:26:51.328Z,4.25
2023-05-16T13:29:19.378Z,4.78
2023-05-16T13:31:47.604Z,5.13
2023-05-16T13:34:15.654Z,4.15
2023-05-16T13:39:18.436Z,6.38
2023-05-16T13:41:48.650Z,3.45
2023-05-16T13:44:17.285Z,5.78
2023-05-16T13:46:45.347Z,4.95
2023-05-16T13:49:13.414Z,4.22
2023-05-16T13:51:41.398Z,4.15
2023-05-16T13:54:10.857Z,3.90
2023-05-16T13:56:38.960Z,4.53
2023-05-16T13:59:07.785Z,3.47
2023-05-16T14:01:36.486Z,3.42
2023-05-16T14:04:04.844Z,4.57
2023-05-16T14:06:33.490Z,3.97
2023-05-16T14:09:01.587Z,3.78
2023-05-16T14:11:30.971Z,4.88
2023-05-16T14:13:59.045Z,3.40
2023-05-16T14:16:27.314Z,3.60
2023-05-16T14:18:55.525Z,3.50
2023-05-16T14:21:23.593Z,3.50
2023-05-16T14:23:51.650Z,3.85
2023-05-16T14:26:22.606Z,3.80
2023-05-16T14:28:52.249Z,4.18
2023-05-16T14:31:20.648Z,3.78
2023-05-16T14:33:48.948Z,3.65
2023-05-16T14:36:17.132Z,3.58
2023-05-16T14:38:45.154Z,3.33
2023-05-16T14:41:13.183Z,3.92
2023-05-16T14:43:41.203Z,3.65
2023-05-16T14:46:11.206Z,3.78
2023-05-16T14:48:39.297Z,3.20
2023-05-16T14:51:07.500Z,3.65
2023-05-16T14:53:35.529Z,4.15
2023-05-16T14:56:03.996Z,3.42
2023-05-16T14:58:32.029Z,3.20
2023-05-16T15:01:00.069Z,3.50
2023-05-16T15:03:30.869Z,3.78
2023-05-16T15:06:01.645Z,2.92
2023-05-16T15:08:29.684Z,5.82
2023-05-16T15:10:57.814Z,2.70
2023-05-16T15:13:25.937Z,2.83
2023-05-16T15:15:54.044Z,3.00
2023-05-16T15:18:22.510Z,3.40
2023-05-16T15:20:53.130Z,3.63
2023-05-16T15:23:21.479Z,3.70
2023-05-16T15:25:49.578Z,3.60
2023-05-16T15:28:21.022Z,3.15
2023-05-16T15:30:51.941Z,2.63
2023-05-16T15:33:19.992Z,3.38
2023-05-16T15:35:48.477Z,3.17
2023-05-16T15:38:17.882Z,2.67
2023-05-16T15:40:45.973Z,2.90
2023-05-16T15:43:14.024Z,2.53
2023-05-16T15:45:42.331Z,2.50
2023-05-16T15:48:10.411Z,2.42
2023-05-16T15:50:38.521Z,3.65
2023-05-16T15:53:06.584Z,2.50
2023-05-16T15:55:36.025Z,3.28
2023-05-16T15:58:05.523Z,3.35
2023-05-16T16:00:33.697Z,2.67
2023-05-16T16:03:01.807Z,2.53
2023-05-16T16:05:30.104Z,2.38
2023-05-16T16:07:58.299Z,2.95
2023-05-16T16:10:27.114Z,2.45
2023-05-16T16:13:02.615Z,3.22
2023-05-16T16:15:33.127Z,2.58
2023-05-16T16:18:01.715Z,2.40
2023-05-16T16:20:29.765Z,2.55
2023-05-16T16:22:58.100Z,2.58
2023-05-16T16:25:26.390Z,2.38
2023-05-16T16:27:54.628Z,3.30
2023-05-16T16:30:24.234Z,2.50
2023-05-16T16:32:52.411Z,2.80
2023-05-16T16:35:20.604Z,2.58
2023-05-16T16:37:54.821Z,3.10
2023-05-16T16:40:30.550Z,3.08
2023-05-16T16:42:58.813Z,3.38
2023-05-16T16:45:28.476Z,2.70
2023-05-16T16:47:56.926Z,3.15
2023-05-16T16:50:25.304Z,2.20
2023-05-16T16:52:53.869Z,2.10
2023-05-16T16:55:22.028Z,2.30
2023-05-16T16:57:50.132Z,2.55
2023-05-16T17:00:18.518Z,2.28
2023-05-16T17:02:47.983Z,2.78
2023-05-16T17:05:16.077Z,2.75
2023-05-16T17:07:44.372Z,3.33
2023-05-16T17:10:12.613Z,2.40
2023-05-16T17:12:46.838Z,2.40
2023-05-16T17:15:14.939Z,2.40
2023-05-16T17:17:43.257Z,3.55
2023-05-16T17:20:13.219Z,3.53
2023-05-16T17:22:41.315Z,1.77
2023-05-16T17:25:10.122Z,2.00
2023-05-16T17:27:38.152Z,2.65
2023-05-16T17:30:07.805Z,2.75
2023-05-16T17:32:35.941Z,4.50
2023-05-16T17:35:04.244Z,2.35
2023-05-16T17:37:33.776Z,6.32
2023-05-16T17:40:01.824Z,3.33
2023-05-16T17:42:29.920Z,2.92
2023-05-16T17:44:57.974Z,2.72
2023-05-16T17:47:26.029Z,2.83
2023-05-16T17:49:54.353Z,2.10
2023-05-16T17:52:23.210Z,2.22
2023-05-16T17:54:52.918Z,2.38
2023-05-16T17:57:20.961Z,2.30
2023-05-16T17:59:48.994Z,3.45
2023-05-16T18:02:17.665Z,2.92
2023-05-16T18:04:45.732Z,2.50
2023-05-16T18:07:13.753Z,2.55
2023-05-16T18:09:41.834Z,2.30
2023-05-16T18:12:11.498Z,2.47
2023-05-16T18:14:39.599Z,3.47
2023-05-16T18:17:08.446Z,2.30
2023-05-16T18:19:37.354Z,3.97
2023-05-16T18:22:08.914Z,4.22
2023-05-16T18:24:37.564Z,6.70
2023-05-16T18:27:05.932Z,4.93
2023-05-16T18:29:35.443Z,4.78
2023-05-16T18:32:03.520Z,4.28
2023-05-16T18:34:31.582Z,5.63
2023-05-16T18:36:59.625Z,5.53
2023-05-16T18:39:27.647Z,4.57
2023-05-16T18:41:55.805Z,5.07
2023-05-16T18:44:23.864Z,6.47
2023-05-16T18:46:53.375Z,7.70
2023-05-16T18:49:21.701Z,3.38
2023-05-16T18:51:49.774Z,5.90
2023-05-16T18:54:17.852Z,4.28
2023-05-16T18:56:46.014Z,3.55
2023-05-16T18:59:14.069Z,3.40
2023-05-16T19:01:42.112Z,3.70
2023-05-16T19:04:11.677Z,3.08
2023-05-16T19:06:39.860Z,4.63
2023-05-16T19:09:09.275Z,2.95
2023-05-16T19:11:37.701Z,3.05
2023-05-16T19:14:05.818Z,3.70
2023-05-16T19:16:34.210Z,4.85
2023-05-16T19:19:02.376Z,3.03
2023-05-16T19:21:31.853Z,4.45
2023-05-16T19:23:59.922Z,3.45
2023-05-16T19:26:28.154Z,3.25
2023-05-16T19:28:56.345Z,3.58
2023-05-16T19:31:24.416Z,5.07
2023-05-16T19:33:52.450Z,3.78
2023-05-16T19:36:21.220Z,3.28
2023-05-16T19:38:50.718Z,3.08
2023-05-16T19:41:18.773Z,3.03
2023-05-16T19:43:46.829Z,3.35
2023-05-16T19:46:14.874Z,2.58
2023-05-16T19:48:43.051Z,3.83
2023-05-16T19:51:11.155Z,4.97
2023-05-16T19:53:39.230Z,2.80
2023-05-16T19:56:09.763Z,3.55
2023-05-16T19:58:37.832Z,2.97
2023-05-16T20:01:05.925Z,3.42
2023-05-16T20:03:34.023Z,2.70
2023-05-16T20:06:02.210Z,3.30
2023-05-16T20:08:30.256Z,3.10
2023-05-16T20:10:58.347Z,4.63
2023-05-16T20:13:28.058Z,3.20
2023-05-16T20:15:56.169Z,2.40
2023-05-16T20:18:24.285Z,3.33
2023-05-16T20:20:52.401Z,2.50
2023-05-16T20:23:20.444Z,2.47
2023-05-16T20:25:48.482Z,3.83
2023-05-16T20:28:16.529Z,3.88
2023-05-16T20:30:45.942Z,3.50
2023-05-16T20:33:14.077Z,2.35
2023-05-16T20:35:42.162Z,2.25
2023-05-16T20:38:10.263Z,2.60
2023-05-16T20:40:38.344Z,2.42
2023-05-16T20:43:06.431Z,2.40
2023-05-16T20:45:34.498Z,2.58
2023-05-16T20:48:04.054Z,2.95
2023-05-16T20:50:32.234Z,3.72
2023-05-16T20:53:00.265Z,4.10
2023-05-16T20:55:28.654Z,2.25
2023-05-16T20:57:56.990Z,2.80
2023-05-16T21:00:25.049Z,2.95
2023-05-16T21:02:53.151Z,2.10
2023-05-16T21:05:25.882Z,2.42
2023-05-16T21:07:54.292Z,4.70
2023-05-16T21:10:22.357Z,1.90
2023-05-16T21:12:50.904Z,2.15
2023-05-16T21:15:19.871Z,2.30
2023-05-16T21:17:49.872Z,3.03
2023-05-16T21:20:18.018Z,3.22
2023-05-16T21:22:47.491Z,1.80
2023-05-16T21:25:15.564Z,2.70
2023-05-16T21:27:43.635Z,2.65
2023-05-16T21:30:12.685Z,1.90
2023-05-16T21:32:40.772Z,3.25
2023-05-16T21:35:09.591Z,3.55
2023-05-16T21:37:37.602Z,2.03
2023-05-16T21:40:09.462Z,2.08
2023-05-16T21:42:37.643Z,2.15
2023-05-16T21:45:12.425Z,2.53
2023-05-16T21:47:40.559Z,3.75
2023-05-16T21:50:10.538Z,3.80
2023-05-16T21:52:38.634Z,2.72
2023-05-16T21:55:08.743Z,2.72
2023-05-16T21:57:36.846Z,2.10
2023-05-16T22:00:09.513Z,2.42
2023-05-16T22:02:37.754Z,2.15
2023-05-16T22:05:07.069Z,2.15
2023-05-16T22:07:35.192Z,1.75
2023-05-16T22:10:03.511Z,1.90
2023-05-16T22:12:33.004Z,5.90
2023-05-16T22:15:01.044Z,1.80
2023-05-16T22:17:29.168Z,2.33
2023-05-16T22:19:57.233Z,1.70
2023-05-16T22:22:25.359Z,2.53
2023-05-16T22:24:53.385Z,3.15
2023-05-16T22:27:21.442Z,2.33
2023-05-16T22:29:50.816Z,1.60
2023-05-16T22:32:18.947Z,1.52
2023-05-16T22:34:46.983Z,2.72
2023-05-16T22:37:15.106Z,1.50
2023-05-16T22:39:43.259Z,3.20
2023-05-16T22:42:11.714Z,3.72
2023-05-16T22:44:39.755Z,2.42
2023-05-16T22:47:09.334Z,2.75
2023-05-16T22:49:39.989Z,1.63
2023-05-16T22:52:08.259Z,1.55
2023-05-16T22:54:36.299Z,1.80
2023-05-16T22:57:04.438Z,1.95
2023-05-16T22:59:32.886Z,1.95
2023-05-16T23:02:00.954Z,1.52
2023-05-16T23:04:30.518Z,2.03
2023-05-16T23:06:58.668Z,3.25
2023-05-16T23:09:26.866Z,2.10
2023-05-16T23:11:54.974Z,3.03
2023-05-16T23:14:23.021Z,1.35
2023-05-16T23:16:51.068Z,1.38
2023-05-16T23:19:19.233Z,1.65
2023-05-16T23:21:48.739Z,2.67
2023-05-16T23:24:16.836Z,1.90
2023-05-16T23:26:44.892Z,1.70
2023-05-16T23:29:13.014Z,1.45
2023-05-16T23:31:41.058Z,1.42
2023-05-16T23:34:09.349Z,1.88
2023-05-16T23:36:37.463Z,4.90
2023-05-16T23:39:08.246Z,1.20
2023-05-16T23:41:36.339Z,1.23
2023-05-16T23:44:04.345Z,1.95
2023-05-16T23:46:32.438Z,1.25
2023-05-16T23:49:00.555Z,1.95
2023-05-16T23:51:34.738Z,1.35
2023-05-16T23:54:11.703Z,1.50
2023-05-16T23:56:39.783Z,2.13
2023-05-16T23:59:07.793Z,1.20
